createdAt,value
2023-03-27T00:01:40.181Z,1.95
2023-03-27T00:04:06.346Z,1.38
2023-03-27T00:06:32.550Z,1.02
2023-03-27T00:08:58.980Z,1.28
2023-03-27T00:11:25.330Z,1.04
2023-03-27T00:13:51.778Z,0.81
2023-03-27T00:16:17.939Z,1.11
2023-03-27T00:18:44.209Z,1.12
2023-03-27T00:21:10.649Z,0.98
2023-03-27T00:23:36.865Z,1.25
2023-03-27T00:26:03.095Z,1.64
2023-03-27T00:28:29.285Z,1.44
2023-03-27T00:30:55.776Z,1.41
2023-03-27T00:33:22.380Z,1.33
2023-03-27T00:35:48.499Z,1.54
2023-03-27T00:38:14.673Z,1.23
2023-03-27T00:40:40.814Z,1.19
2023-03-27T00:43:07.064Z,0.58
2023-03-27T00:45:33.498Z,0.64
2023-03-27T00:47:59.649Z,0.87
2023-03-27T00:50:25.810Z,0.91
2023-03-27T00:52:52.258Z,0.84
2023-03-27T00:55:18.340Z,0.74
2023-03-27T00:57:44.439Z,0.68
2023-03-27T01:00:10.549Z,0.55
2023-03-27T01:02:36.731Z,0.65
2023-03-27T01:05:02.970Z,0.69
2023-03-27T01:07:29.068Z,0.93
2023-03-27T01:09:55.173Z,0.93
2023-03-27T01:12:21.328Z,0.96
2023-03-27T01:14:47.452Z,0.80
2023-03-27T01:17:13.687Z,1.12
2023-03-27T01:19:39.863Z,0.88
2023-03-27T01:22:06.306Z,0.54
2023-03-27T01:24:32.411Z,0.63
2023-03-27T01:26:58.559Z,1.11
2023-03-27T01:29:24.815Z,1.51
2023-03-27T01:31:50.932Z,1.31
2023-03-27T01:34:17.493Z,1.49
2023-03-27T01:36:43.589Z,1.37
2023-03-27T01:39:09.792Z,1.13
2023-03-27T01:41:35.896Z,0.86
2023-03-27T01:44:02.329Z,0.91
2023-03-27T01:46:28.817Z,0.38
2023-03-27T01:48:54.991Z,0.82
2023-03-27T01:51:21.431Z,1.08
2023-03-27T01:53:47.553Z,0.66
2023-03-27T01:56:13.720Z,0.65
2023-03-27T01:58:39.826Z,1.03
2023-03-27T02:01:06.197Z,1.29
2023-03-27T02:03:32.537Z,1.49
2023-03-27T02:05:58.868Z,1.07
2023-03-27T02:08:24.991Z,0.62
2023-03-27T02:10:51.081Z,0.72
2023-03-27T02:13:17.234Z,0.80
2023-03-27T02:15:43.343Z,1.18
2023-03-27T02:18:09.438Z,1.20
2023-03-27T02:20:35.534Z,0.65
2023-03-27T02:23:01.712Z,0.88
2023-03-27T02:25:27.973Z,1.22
2023-03-27T02:27:54.077Z,1.01
2023-03-27T02:30:20.297Z,1.26
2023-03-27T02:32:46.644Z,1.30
2023-03-27T02:35:12.848Z,0.73
2023-03-27T02:37:39.041Z,0.55
2023-03-27T02:40:05.141Z,0.95
2023-03-27T02:42:31.233Z,1.24
2023-03-27T02:44:57.685Z,1.10
2023-03-27T02:47:23.789Z,0.81
2023-03-27T02:49:49.878Z,1.07
2023-03-27T02:52:16.012Z,1.22
2023-03-27T02:54:42.109Z,1.07
2023-03-27T02:57:08.262Z,0.78
2023-03-27T02:59:34.448Z,1.00
2023-03-27T03:02:00.601Z,1.28
2023-03-27T03:04:26.702Z,1.34
2023-03-27T03:06:52.832Z,1.39
2023-03-27T03:09:18.944Z,1.51
2023-03-27T03:11:45.246Z,1.63
2023-03-27T03:14:11.376Z,1.64
2023-03-27T03:16:37.591Z,1.17
2023-03-27T03:19:03.700Z,0.99
2023-03-27T03:21:29.807Z,1.62
2023-03-27T03:23:57.767Z,1.15
2023-03-27T03:26:24.691Z,1.16
2023-03-27T03:29:00.292Z,0.92
2023-03-27T03:33:53.706Z,1.44
2023-03-27T03:36:19.800Z,1.58
2023-03-27T03:38:46.213Z,1.52
2023-03-27T03:41:12.297Z,1.40
2023-03-27T03:43:38.405Z,1.37
2023-03-27T03:46:04.540Z,1.29
2023-03-27T03:48:30.694Z,1.41
2023-03-27T03:50:56.928Z,1.03
2023-03-27T03:53:23.279Z,0.97
2023-03-27T03:55:49.467Z,0.73
2023-03-27T03:58:15.642Z,1.03
2023-03-27T04:00:41.750Z,0.98
2023-03-27T04:03:07.936Z,0.80
2023-03-27T04:05:34.099Z,0.72
2023-03-27T04:08:00.251Z,0.09
2023-03-27T04:10:26.676Z,-0.13
2023-03-27T04:12:52.776Z,-0.08
2023-03-27T04:15:18.881Z,0.10
2023-03-27T04:17:45.150Z,0.63
2023-03-27T04:20:11.279Z,0.87
2023-03-27T04:22:37.396Z,1.14
2023-03-27T04:25:03.550Z,1.29
2023-03-27T04:27:29.665Z,1.47
2023-03-27T04:29:56.105Z,1.51
2023-03-27T04:32:22.364Z,1.23
2023-03-27T04:34:48.528Z,1.26
2023-03-27T04:37:14.671Z,1.51
2023-03-27T04:39:40.812Z,1.60
2023-03-27T04:42:06.921Z,1.63
2023-03-27T04:44:33.007Z,1.80
2023-03-27T04:46:59.236Z,1.87
2023-03-27T04:49:25.480Z,1.87
2023-03-27T04:51:51.574Z,1.19
2023-03-27T04:54:17.688Z,0.63
2023-03-27T04:56:43.858Z,0.99
2023-03-27T04:59:09.993Z,0.94
2023-03-27T05:01:36.320Z,1.05
2023-03-27T05:04:02.734Z,0.66
2023-03-27T05:06:29.062Z,0.59
2023-03-27T05:08:55.157Z,0.63
2023-03-27T05:11:21.310Z,0.86
2023-03-27T05:13:47.539Z,0.59
2023-03-27T05:16:13.690Z,0.37
2023-03-27T05:18:41.988Z,0.49
2023-03-27T05:21:08.328Z,0.68
2023-03-27T05:23:34.433Z,0.65
2023-03-27T05:26:01.092Z,0.58
2023-03-27T05:28:27.290Z,0.99
2023-03-27T05:30:53.689Z,1.37
2023-03-27T05:33:19.874Z,1.04
2023-03-27T05:35:45.999Z,0.94
2023-03-27T05:38:12.115Z,0.99
2023-03-27T05:40:38.628Z,0.57
2023-03-27T05:43:04.747Z,0.54
2023-03-27T05:45:30.872Z,0.51
2023-03-27T05:47:57.346Z,0.62
2023-03-27T05:50:23.472Z,0.26
2023-03-27T05:52:49.595Z,0.82
2023-03-27T05:55:15.701Z,0.99
2023-03-27T05:57:41.914Z,1.21
2023-03-27T06:00:08.136Z,1.38
2023-03-27T06:02:34.295Z,1.65
2023-03-27T06:05:00.558Z,1.50
2023-03-27T06:07:26.679Z,1.26
2023-03-27T06:09:52.823Z,1.32
2023-03-27T06:12:18.930Z,1.53
2023-03-27T06:14:45.017Z,1.67
2023-03-27T06:17:11.148Z,1.69
2023-03-27T06:19:37.264Z,1.66
2023-03-27T06:22:03.385Z,1.97
2023-03-27T06:24:29.824Z,0.64
2023-03-27T06:26:55.916Z,0.62
2023-03-27T06:29:22.468Z,1.40
2023-03-27T06:31:48.583Z,1.66
2023-03-27T06:34:14.671Z,2.17
2023-03-27T06:36:40.779Z,1.98
2023-03-27T06:39:06.864Z,2.48
2023-03-27T06:41:33.220Z,2.49
2023-03-27T06:43:59.344Z,2.61
2023-03-27T06:46:32.230Z,2.59
2023-03-27T06:49:05.134Z,2.39
2023-03-27T06:51:31.249Z,2.54
2023-03-27T06:53:57.350Z,2.72
2023-03-27T06:56:23.456Z,2.36
2023-03-27T06:58:49.562Z,2.03
2023-03-27T07:01:15.715Z,2.51
2023-03-27T07:03:41.797Z,2.38
2023-03-27T07:06:07.931Z,2.11
2023-03-27T07:08:34.122Z,2.74
2023-03-27T07:11:11.627Z,2.24
2023-03-27T07:13:38.565Z,2.08
2023-03-27T07:16:04.826Z,2.09
2023-03-27T07:18:31.002Z,0.66
2023-03-27T07:20:57.413Z,0.24
2023-03-27T07:23:23.664Z,-0.30
2023-03-27T07:25:49.768Z,-0.48
2023-03-27T07:28:15.862Z,-0.70
2023-03-27T07:30:41.948Z,-1.49
2023-03-27T07:33:08.226Z,-1.88
2023-03-27T07:35:34.502Z,-1.81
2023-03-27T07:38:00.645Z,-1.50
2023-03-27T07:40:38.947Z,-1.12
2023-03-27T07:43:06.160Z,-0.41
2023-03-27T07:45:32.326Z,-0.78
2023-03-27T07:47:58.796Z,-0.21
2023-03-27T07:50:25.019Z,0.63
2023-03-27T07:52:51.252Z,0.96
2023-03-27T07:55:17.439Z,0.66
2023-03-27T07:57:57.231Z,-1.49
2023-03-27T08:00:26.476Z,-1.03
2023-03-27T08:02:52.716Z,-0.57
2023-03-27T08:05:18.902Z,-0.90
2023-03-27T08:07:45.001Z,-0.60
2023-03-27T08:10:11.166Z,-0.66
2023-03-27T08:12:37.296Z,0.06
2023-03-27T08:15:03.434Z,0.95
2023-03-27T08:17:29.616Z,1.84
2023-03-27T08:19:55.785Z,1.44
2023-03-27T08:22:21.866Z,2.26
2023-03-27T08:24:48.021Z,2.84
2023-03-27T08:27:14.120Z,1.63
2023-03-27T08:29:40.243Z,1.88
2023-03-27T08:32:09.621Z,1.55
2023-03-27T08:34:35.718Z,0.41
2023-03-27T08:37:01.875Z,0.50
2023-03-27T08:39:28.074Z,1.59
2023-03-27T08:41:54.237Z,2.67
2023-03-27T08:44:20.339Z,3.81
2023-03-27T08:46:47.872Z,4.01
2023-03-27T08:49:14.050Z,3.46
2023-03-27T08:51:40.149Z,3.71
2023-03-27T08:54:06.265Z,4.18
2023-03-27T08:56:32.365Z,4.63
2023-03-27T08:58:58.466Z,4.33
2023-03-27T09:01:24.621Z,4.40
2023-03-27T09:03:50.822Z,4.30
2023-03-27T09:06:17.004Z,2.22
2023-03-27T09:08:43.095Z,2.08
2023-03-27T09:11:09.323Z,1.27
2023-03-27T09:13:35.566Z,1.40
2023-03-27T09:16:01.708Z,0.80
2023-03-27T09:18:27.869Z,2.09
2023-03-27T09:20:53.990Z,2.52
2023-03-27T09:23:21.134Z,2.30
2023-03-27T09:25:47.393Z,2.61
2023-03-27T09:28:13.504Z,3.04
2023-03-27T09:30:39.623Z,3.18
2023-03-27T09:33:05.847Z,2.92
2023-03-27T09:35:32.065Z,3.10
2023-03-27T09:37:58.303Z,3.57
2023-03-27T09:40:24.398Z,3.54
2023-03-27T09:42:50.489Z,3.95
2023-03-27T09:45:16.602Z,4.57
2023-03-27T09:47:42.794Z,3.82
2023-03-27T09:50:08.937Z,4.77
2023-03-27T09:52:35.045Z,5.63
2023-03-27T09:55:01.166Z,6.13
2023-03-27T09:57:27.257Z,6.54
2023-03-27T09:59:53.446Z,6.89
2023-03-27T10:02:19.564Z,7.08
2023-03-27T10:04:45.696Z,7.24
2023-03-27T10:07:11.795Z,7.59
2023-03-27T10:09:38.072Z,7.40
2023-03-27T10:12:04.153Z,8.42
2023-03-27T10:14:30.258Z,8.67
2023-03-27T10:16:56.403Z,8.24
2023-03-27T10:19:22.514Z,7.78
2023-03-27T10:21:48.621Z,7.34
2023-03-27T10:24:14.704Z,6.77
2023-03-27T10:26:40.824Z,5.87
2023-03-27T10:29:06.922Z,6.10
2023-03-27T10:31:33.091Z,4.79
2023-03-27T10:33:59.255Z,5.39
2023-03-27T10:36:25.361Z,6.27
2023-03-27T10:38:51.476Z,4.25
2023-03-27T10:41:17.622Z,5.02
2023-03-27T10:43:55.002Z,4.20
2023-03-27T10:46:21.121Z,3.99
2023-03-27T10:48:47.245Z,5.16
2023-03-27T10:51:13.349Z,5.10
2023-03-27T10:53:39.597Z,5.69
2023-03-27T10:56:05.750Z,5.44
2023-03-27T10:58:31.857Z,5.07
2023-03-27T11:00:58.085Z,5.66
2023-03-27T11:03:24.452Z,4.10
2023-03-27T11:05:50.569Z,3.74
2023-03-27T11:08:16.715Z,3.91
2023-03-27T11:10:42.820Z,3.82
2023-03-27T11:13:08.916Z,2.65
2023-03-27T11:15:35.016Z,2.62
2023-03-27T11:18:01.249Z,1.86
2023-03-27T11:20:27.499Z,1.88
2023-03-27T11:22:53.612Z,0.22
2023-03-27T11:25:19.800Z,-0.07
2023-03-27T11:27:45.996Z,0.73
2023-03-27T11:30:12.126Z,0.53
2023-03-27T11:32:38.383Z,0.11
2023-03-27T11:35:04.622Z,-0.08
2023-03-27T11:37:30.878Z,-0.80
2023-03-27T11:39:57.005Z,-1.01
2023-03-27T11:42:23.131Z,-0.83
2023-03-27T11:44:49.251Z,-1.56
2023-03-27T11:47:15.367Z,-1.21
2023-03-27T11:49:41.805Z,-1.32
2023-03-27T11:52:08.028Z,-0.71
2023-03-27T11:54:34.194Z,-0.17
2023-03-27T11:57:00.306Z,0.02
2023-03-27T11:59:26.417Z,0.44
2023-03-27T12:01:52.594Z,1.64
2023-03-27T12:04:18.826Z,2.42
2023-03-27T12:06:44.937Z,2.45
2023-03-27T12:09:11.062Z,2.91
2023-03-27T12:11:37.170Z,2.21
2023-03-27T12:14:05.391Z,2.34
2023-03-27T12:16:35.360Z,3.51
2023-03-27T12:19:08.190Z,2.88
2023-03-27T12:21:40.149Z,3.71
2023-03-27T12:24:07.232Z,4.66
2023-03-27T12:26:33.375Z,3.89
2023-03-27T12:28:59.470Z,3.79
2023-03-27T12:31:25.599Z,4.32
2023-03-27T12:33:51.746Z,4.72
2023-03-27T12:36:17.880Z,4.63
2023-03-27T12:38:43.977Z,5.37
2023-03-27T12:41:10.085Z,5.89
2023-03-27T12:43:36.503Z,6.41
2023-03-27T12:46:02.940Z,6.79
2023-03-27T12:48:29.307Z,6.46
2023-03-27T12:50:55.666Z,6.78
2023-03-27T12:53:22.127Z,6.05
2023-03-27T12:55:48.245Z,5.79
2023-03-27T12:58:14.470Z,6.21
2023-03-27T13:00:40.631Z,5.48
2023-03-27T13:03:06.818Z,2.94
2023-03-27T13:05:33.042Z,2.80
2023-03-27T13:07:59.158Z,2.12
2023-03-27T13:10:25.303Z,2.98
2023-03-27T13:12:51.417Z,2.78
2023-03-27T13:15:17.673Z,2.73
2023-03-27T13:17:43.847Z,1.77
2023-03-27T13:20:09.969Z,2.25
2023-03-27T13:22:37.012Z,1.38
2023-03-27T13:25:03.576Z,1.30
2023-03-27T13:27:30.788Z,0.51
2023-03-27T13:29:56.883Z,0.68
2023-03-27T13:32:23.024Z,0.84
2023-03-27T13:34:49.234Z,2.18
2023-03-27T13:37:15.374Z,3.33
2023-03-27T13:39:41.499Z,2.43
2023-03-27T13:42:07.613Z,2.82
2023-03-27T13:44:33.735Z,2.38
2023-03-27T13:46:59.858Z,2.51
2023-03-27T13:49:26.033Z,2.30
2023-03-27T13:51:52.183Z,3.03
2023-03-27T13:54:18.412Z,3.50
2023-03-27T13:56:44.539Z,3.09
2023-03-27T13:59:10.641Z,3.03
2023-03-27T14:01:36.741Z,3.90
2023-03-27T14:04:02.911Z,4.02
2023-03-27T14:06:29.055Z,3.50
2023-03-27T14:08:55.174Z,3.68
2023-03-27T14:11:21.390Z,2.33
2023-03-27T14:13:47.499Z,2.80
2023-03-27T14:16:13.683Z,0.92
2023-03-27T14:18:39.815Z,0.74
2023-03-27T14:21:05.921Z,1.78
2023-03-27T14:23:32.032Z,1.65
2023-03-27T14:25:58.336Z,1.43
2023-03-27T14:28:24.566Z,1.55
2023-03-27T14:30:51.073Z,2.60
2023-03-27T14:33:17.642Z,3.68
2023-03-27T14:35:44.025Z,3.74
2023-03-27T14:38:10.232Z,3.78
2023-03-27T14:40:36.328Z,4.21
2023-03-27T14:43:02.612Z,2.40
2023-03-27T14:45:28.698Z,3.12
2023-03-27T14:47:54.869Z,3.09
2023-03-27T14:50:21.038Z,2.95
2023-03-27T14:52:47.145Z,2.69
2023-03-27T14:55:13.257Z,2.33
2023-03-27T14:57:39.363Z,2.37
2023-03-27T15:00:05.596Z,2.34
2023-03-27T15:02:31.739Z,2.63
2023-03-27T15:04:57.942Z,1.95
2023-03-27T15:07:24.036Z,2.33
2023-03-27T15:09:50.141Z,2.58
2023-03-27T15:12:16.261Z,2.80
2023-03-27T15:14:42.417Z,3.51
2023-03-27T15:17:08.637Z,2.29
2023-03-27T15:19:34.797Z,2.70
2023-03-27T15:22:01.447Z,2.87
2023-03-27T15:24:27.797Z,1.88
2023-03-27T15:26:53.926Z,2.37
2023-03-27T15:29:20.043Z,2.73
2023-03-27T15:31:46.166Z,2.48
2023-03-27T15:34:12.264Z,2.37
2023-03-27T15:36:38.401Z,2.02
2023-03-27T15:39:04.543Z,1.55
2023-03-27T15:41:30.636Z,1.29
2023-03-27T15:43:56.760Z,1.11
2023-03-27T15:46:24.711Z,1.31
2023-03-27T15:48:52.183Z,1.37
2023-03-27T15:51:18.326Z,1.68
2023-03-27T15:53:44.457Z,1.61
2023-03-27T15:56:10.567Z,0.86
2023-03-27T15:58:36.671Z,0.74
2023-03-27T16:01:02.846Z,0.42
2023-03-27T16:03:44.651Z,-0.18
2023-03-27T16:06:11.007Z,-0.22
2023-03-27T16:08:37.131Z,-0.58
2023-03-27T16:11:03.382Z,-0.69
2023-03-27T16:13:29.509Z,-0.78
2023-03-27T16:15:55.997Z,-0.91
2023-03-27T16:18:22.262Z,-1.16
2023-03-27T16:20:48.375Z,-1.23
2023-03-27T16:23:14.515Z,-1.33
2023-03-27T16:25:40.633Z,-1.40
2023-03-27T16:28:06.735Z,-1.36
2023-03-27T16:30:32.920Z,-1.44
2023-03-27T16:32:59.053Z,-1.43
2023-03-27T16:35:25.259Z,-1.41
2023-03-27T16:37:51.407Z,-1.79
2023-03-27T16:40:17.574Z,-1.30
2023-03-27T16:42:43.746Z,-1.44
2023-03-27T16:45:10.278Z,-0.86
2023-03-27T16:47:36.391Z,-0.72
2023-03-27T16:50:11.349Z,-1.13
2023-03-27T16:52:37.911Z,-0.75
2023-03-27T16:55:06.458Z,-0.78
2023-03-27T16:57:33.461Z,-1.15
2023-03-27T16:59:59.560Z,-1.32
2023-03-27T17:02:25.761Z,-1.57
2023-03-27T17:04:51.934Z,-1.85
2023-03-27T17:07:18.196Z,-1.76
2023-03-27T17:09:44.306Z,-2.01
2023-03-27T17:12:10.391Z,-2.22
2023-03-27T17:14:36.536Z,-1.75
2023-03-27T17:17:02.730Z,-2.26
2023-03-27T17:19:28.883Z,-2.31
2023-03-27T17:21:54.995Z,-2.44
2023-03-27T17:24:21.085Z,-2.54
2023-03-27T17:26:47.198Z,-2.58
2023-03-27T17:29:13.302Z,-2.31
2023-03-27T17:31:39.431Z,-2.15
2023-03-27T17:34:05.600Z,-2.28
2023-03-27T17:36:41.496Z,-2.20
2023-03-27T17:39:11.182Z,-2.21
2023-03-27T17:41:37.280Z,-2.22
2023-03-27T17:44:03.960Z,-2.11
2023-03-27T17:46:31.244Z,-2.19
2023-03-27T17:48:57.489Z,-2.24
2023-03-27T17:51:23.600Z,-2.63
2023-03-27T17:53:50.039Z,-2.83
2023-03-27T17:56:16.153Z,-2.77
2023-03-27T17:58:42.394Z,-2.84
2023-03-27T18:01:08.641Z,-2.48
2023-03-27T18:03:34.845Z,-2.23
2023-03-27T18:06:01.020Z,-2.71
2023-03-27T18:08:27.150Z,-2.37
2023-03-27T18:10:53.269Z,-2.70
2023-03-27T18:13:19.405Z,-2.68
2023-03-27T18:15:45.574Z,-2.80
2023-03-27T18:18:11.799Z,-2.91
2023-03-27T18:20:37.963Z,-2.61
2023-03-27T18:23:04.067Z,-2.20
2023-03-27T18:25:30.151Z,-2.01
2023-03-27T18:27:56.263Z,-1.71
2023-03-27T18:30:22.375Z,-1.42
2023-03-27T18:32:48.518Z,-1.28
2023-03-27T18:35:14.673Z,-1.55
2023-03-27T18:37:40.794Z,-1.98
2023-03-27T18:40:06.917Z,-2.12
2023-03-27T18:42:33.129Z,-2.90
2023-03-27T18:44:59.278Z,-2.68
2023-03-27T18:47:25.409Z,-2.44
2023-03-27T18:49:51.513Z,-2.24
2023-03-27T18:52:17.671Z,-1.61
2023-03-27T18:54:43.783Z,-2.16
2023-03-27T18:57:09.915Z,-2.25
2023-03-27T18:59:36.033Z,-2.30
2023-03-27T19:02:02.286Z,-2.63
2023-03-27T19:04:28.435Z,-2.52
2023-03-27T19:06:54.536Z,-2.22
2023-03-27T19:09:23.480Z,-1.80
2023-03-27T19:11:57.392Z,-1.29
2023-03-27T19:14:23.535Z,-1.14
2023-03-27T19:16:49.652Z,-0.87
2023-03-27T19:19:15.764Z,-1.08
2023-03-27T19:21:41.860Z,-0.77
2023-03-27T19:24:07.956Z,-0.99
2023-03-27T19:26:34.080Z,-1.25
2023-03-27T19:29:00.188Z,-1.21
2023-03-27T19:31:26.308Z,-1.03
2023-03-27T19:33:52.478Z,-1.02
2023-03-27T19:36:19.378Z,-1.00
2023-03-27T19:38:45.608Z,-0.98
2023-03-27T19:41:11.699Z,-0.88
2023-03-27T19:43:37.813Z,-0.89
2023-03-27T19:46:15.739Z,-0.90
2023-03-27T19:48:42.890Z,-0.83
2023-03-27T19:51:09.000Z,-0.85
2023-03-27T19:53:35.099Z,-0.79
2023-03-27T19:56:01.211Z,-0.82
2023-03-27T19:58:27.332Z,-0.89
2023-03-27T20:00:53.429Z,-0.95
2023-03-27T20:03:19.650Z,-0.97
2023-03-27T20:05:45.875Z,-1.01
2023-03-27T20:08:11.964Z,-1.41
2023-03-27T20:10:38.043Z,-1.28
2023-03-27T20:13:04.168Z,-1.34
2023-03-27T20:15:30.286Z,-1.65
2023-03-27T20:17:56.441Z,-1.76
2023-03-27T20:20:22.559Z,-1.80
2023-03-27T20:25:17.684Z,-1.29
2023-03-27T20:27:43.855Z,-1.55
2023-03-27T20:30:09.961Z,-1.60
2023-03-27T20:32:36.119Z,-1.50
2023-03-27T20:35:07.435Z,-1.43
2023-03-27T20:37:39.245Z,-1.32
2023-03-27T20:40:05.369Z,-1.20
2023-03-27T20:42:31.481Z,-1.37
2023-03-27T20:44:57.597Z,-1.44
2023-03-27T20:47:23.740Z,-1.47
2023-03-27T20:49:49.848Z,-1.55
2023-03-27T20:52:15.983Z,-1.52
2023-03-27T20:54:42.124Z,-1.65
2023-03-27T20:57:08.340Z,-1.64
2023-03-27T20:59:34.488Z,-1.69
2023-03-27T21:02:00.642Z,-1.72
2023-03-27T21:04:26.767Z,-1.75
2023-03-27T21:06:52.868Z,-1.72
2023-03-27T21:09:18.996Z,-1.73
2023-03-27T21:11:45.254Z,-1.61
2023-03-27T21:14:11.361Z,-1.72
2023-03-27T21:16:37.582Z,-1.69
2023-03-27T21:19:03.762Z,-1.83
2023-03-27T21:21:29.892Z,-1.61
2023-03-27T21:23:55.986Z,-1.62
2023-03-27T21:26:22.076Z,-1.83
2023-03-27T21:28:48.264Z,-1.67
2023-03-27T21:31:14.392Z,-1.73
2023-03-27T21:33:40.472Z,-1.69
2023-03-27T21:36:06.629Z,-1.82
2023-03-27T21:38:32.889Z,-1.83
2023-03-27T21:40:58.976Z,-1.75
2023-03-27T21:43:25.086Z,-1.86
2023-03-27T21:45:51.332Z,-2.10
2023-03-27T21:48:17.503Z,-1.90
2023-03-27T21:50:43.620Z,-2.01
2023-03-27T21:53:09.749Z,-2.22
2023-03-27T21:55:35.893Z,-2.68
2023-03-27T21:58:01.998Z,-2.33
2023-03-27T22:00:28.098Z,-2.05
2023-03-27T22:02:54.293Z,-2.11
2023-03-27T22:05:20.561Z,-2.13
2023-03-27T22:07:46.643Z,-2.13
2023-03-27T22:10:12.719Z,-2.12
2023-03-27T22:12:38.844Z,-2.41
2023-03-27T22:15:04.972Z,-2.59
2023-03-27T22:17:31.174Z,-2.82
2023-03-27T22:19:57.331Z,-2.67
2023-03-27T22:22:23.468Z,-2.52
2023-03-27T22:24:49.565Z,-2.87
2023-03-27T22:27:15.646Z,-2.74
2023-03-27T22:29:42.067Z,-2.54
2023-03-27T22:32:08.199Z,-2.35
2023-03-27T22:34:34.287Z,-2.25
2023-03-27T22:37:00.392Z,-2.30
2023-03-27T22:39:26.529Z,-2.29
2023-03-27T22:41:52.608Z,-2.48
2023-03-27T22:44:18.698Z,-2.55
2023-03-27T22:46:44.830Z,-2.63
2023-03-27T22:49:10.960Z,-2.59
2023-03-27T22:51:37.068Z,-2.60
2023-03-27T22:54:03.168Z,-2.47
2023-03-27T22:56:29.274Z,-2.33
2023-03-27T22:58:55.379Z,-2.20
2023-03-27T23:01:21.619Z,-2.20
2023-03-27T23:03:47.871Z,-2.12
2023-03-27T23:06:14.048Z,-2.01
2023-03-27T23:08:40.149Z,-1.96
2023-03-27T23:11:06.268Z,-2.24
2023-03-27T23:13:32.371Z,-2.50
2023-03-27T23:15:58.775Z,-2.46
2023-03-27T23:18:25.035Z,-2.41
2023-03-27T23:20:51.131Z,-2.37
2023-03-27T23:23:17.224Z,-2.45
2023-03-27T23:25:43.347Z,-2.54
2023-03-27T23:28:09.452Z,-2.59
2023-03-27T23:30:35.545Z,-2.76
2023-03-27T23:33:01.706Z,-2.70
2023-03-27T23:35:27.854Z,-2.79
2023-03-27T23:37:53.977Z,-2.85
2023-03-27T23:40:20.130Z,-2.91
2023-03-27T23:42:46.278Z,-2.96
2023-03-27T23:45:12.366Z,-2.99
2023-03-27T23:47:38.602Z,-3.25
2023-03-27T23:50:04.721Z,-3.52
2023-03-27T23:52:30.825Z,-3.52
2023-03-27T23:54:56.967Z,-3.63
2023-03-27T23:57:23.098Z,-3.76
2023-03-27T23:59:49.243Z,-4.08
